Time;durP1;ratioP1;P1;durP2;ratioP2;P2;SDS_P1;SDS_P2;PMS_P1;PMS_P2;Temp;Humidity;BMP_temperature;BMP_pressure;BME280_temperature;BME280_humidity;BME280_pressure;Samples;Min_cycle;Max_cycle;Signal;HPM_P1;HPM_P2
2023/08/17 00:01:41;;;;;;;17.40;15.70;;;18.70;99.90;;;;;;5114918;28;20833;-88
2023/08/17 00:04:07;;;;;;;17.60;15.30;;;18.70;99.90;;;;;;5114840;28;20490;-88
2023/08/17 00:06:33;;;;;;;27.47;17.73;;;18.70;99.90;;;;;;5097124;28;20457;-88
2023/08/17 00:08:59;;;;;;;16.20;14.60;;;18.70;99.90;;;;;;5115266;28;20380;-87
2023/08/17 00:11:24;;;;;;;18.67;15.73;;;18.70;99.90;;;;;;5097718;28;20187;-88
2023/08/17 00:13:50;;;;;;;21.73;17.10;;;18.70;99.90;;;;;;5115416;28;20604;-87
2023/08/17 00:16:16;;;;;;;22.30;16.67;;;18.70;99.90;;;;;;5115225;28;20272;-87
2023/08/17 00:18:42;;;;;;;21.20;16.60;;;18.70;99.90;;;;;;5097077;28;20659;-87
2023/08/17 00:21:08;;;;;;;23.07;16.10;;;18.60;99.90;;;;;;5115165;28;20441;-86
2023/08/17 00:23:34;;;;;;;18.57;16.63;;;18.60;99.90;;;;;;5115735;28;20287;-88
2023/08/17 00:25:59;;;;;;;17.03;15.20;;;18.60;99.90;;;;;;5115154;28;20176;-87
2023/08/17 00:28:25;;;;;;;16.80;14.30;;;18.60;99.90;;;;;;5115187;28;20875;-87
2023/08/17 00:30:51;;;;;;;16.50;14.80;;;18.60;99.90;;;;;;5115405;28;20236;-87
2023/08/17 00:33:17;;;;;;;21.93;15.47;;;18.50;99.90;;;;;;5096684;28;20479;-87
2023/08/17 00:35:42;;;;;;;17.20;15.30;;;18.40;99.90;;;;;;5114736;28;20176;-88
2023/08/17 00:38:08;;;;;;;20.00;14.73;;;18.40;99.90;;;;;;5114722;28;20258;-87
2023/08/17 00:40:34;;;;;;;18.00;14.30;;;18.50;99.90;;;;;;5114812;28;20277;-87
2023/08/17 00:43:00;;;;;;;17.70;14.30;;;18.40;99.90;;;;;;5114827;28;20316;-87
2023/08/17 00:45:26;;;;;;;17.77;16.07;;;18.40;99.90;;;;;;5114518;28;20496;-88
2023/08/17 00:47:55;;;;;;;20.37;14.93;;;18.40;99.90;;;;;;5114853;28;20194;-88
2023/08/17 00:50:22;;;;;;;15.63;13.97;;;18.30;99.90;;;;;;5114246;28;20920;-87
2023/08/17 00:52:47;;;;;;;16.87;14.90;;;18.20;99.90;;;;;;5080066;28;20417;-88
2023/08/17 00:55:13;;;;;;;15.87;14.27;;;18.20;99.90;;;;;;5114259;28;20413;-88
2023/08/17 00:57:40;;;;;;;18.40;15.37;;;18.20;99.90;;;;;;5114553;28;20207;-88
2023/08/17 01:00:07;;;;;;;18.73;16.10;;;18.20;99.90;;;;;;5114576;28;20194;-88
2023/08/17 01:02:33;;;;;;;20.77;16.63;;;18.20;99.90;;;;;;5096386;28;20902;-88
2023/08/17 01:04:58;;;;;;;17.77;15.90;;;18.10;99.90;;;;;;5114737;28;20412;-88
2023/08/17 01:07:24;;;;;;;21.07;15.83;;;18.10;99.90;;;;;;5114406;28;20396;-87
2023/08/17 01:09:50;;;;;;;20.27;15.37;;;18.10;99.90;;;;;;5096146;28;20179;-87
2023/08/17 01:12:31;;;;;;;24.30;16.60;;;18.00;99.90;;;;;;5114167;28;20258;-88
2023/08/17 01:15:20;;;;;;;19.37;17.40;;;18.00;99.90;;;;;;5114439;28;20175;-87
2023/08/17 01:17:56;;;;;;;17.60;15.50;;;17.90;99.90;;;;;;5114321;28;20435;-88
2023/08/17 01:20:23;;;;;;;19.70;17.30;;;17.90;99.90;;;;;;5114387;28;20403;-88
2023/08/17 01:22:51;;;;;;;21.03;16.70;;;17.90;99.90;;;;;;5114018;28;20457;-88
2023/08/17 01:25:17;;;;;;;23.23;17.80;;;17.80;99.90;;;;;;5114019;28;20399;-88
2023/08/17 01:27:46;;;;;;;20.67;17.70;;;17.70;99.90;;;;;;5114355;28;20759;-88
2023/08/17 01:30:14;;;;;;;21.43;17.67;;;17.70;99.90;;;;;;5114066;28;20437;-88
2023/08/17 01:32:45;;;;;;;19.50;16.33;;;17.80;99.90;;;;;;5114186;28;20458;-88
2023/08/17 01:35:34;;;;;;;24.63;18.90;;;17.80;99.90;;;;;;5114043;28;20400;-88
2023/08/17 01:38:04;;;;;;;19.70;15.93;;;17.70;99.90;;;;;;5114520;28;20495;-88
2023/08/17 01:40:32;;;;;;;22.63;17.00;;;17.60;99.90;;;;;;5114323;28;20458;-88
2023/08/17 01:42:58;;;;;;;20.77;16.63;;;17.60;99.90;;;;;;5114142;28;20421;-88
2023/08/17 01:45:24;;;;;;;19.10;17.20;;;17.60;99.90;;;;;;5113875;28;20409;-88
2023/08/17 01:47:50;;;;;;;18.30;15.37;;;17.60;99.90;;;;;;5095531;28;20902;-88
2023/08/17 01:50:15;;;;;;;19.40;17.40;;;17.60;99.90;;;;;;5113846;28;20384;-88
2023/08/17 01:52:41;;;;;;;19.13;17.23;;;17.60;99.90;;;;;;5114166;28;20183;-88
2023/08/17 01:55:08;;;;;;;24.50;17.83;;;17.70;99.90;;;;;;5113802;28;20218;-88
2023/08/17 01:57:34;;;;;;;21.97;18.70;;;17.60;99.90;;;;;;5113857;28;20322;-88
2023/08/17 02:00:00;;;;;;;17.90;16.03;;;17.70;99.90;;;;;;5095977;28;20401;-88
2023/08/17 02:02:26;;;;;;;20.93;17.87;;;17.80;99.90;;;;;;5113805;28;20524;-88
2023/08/17 02:04:51;;;;;;;21.90;19.70;;;17.70;99.90;;;;;;5114073;28;20211;-87
2023/08/17 02:07:17;;;;;;;25.33;19.33;;;17.80;99.90;;;;;;5113580;28;20232;-88
2023/08/17 02:09:42;;;;;;;25.40;20.70;;;17.70;99.90;;;;;;5113888;28;20179;-88
2023/08/17 02:12:08;;;;;;;22.00;19.70;;;17.70;99.90;;;;;;5113799;28;20658;-88
2023/08/17 02:14:34;;;;;;;23.43;20.30;;;17.70;99.90;;;;;;5113818;28;20183;-88
2023/08/17 02:16:59;;;;;;;21.27;19.07;;;17.80;99.90;;;;;;5113831;28;20204;-88
2023/08/17 02:19:25;;;;;;;21.33;18.90;;;17.80;99.90;;;;;;5113693;28;20215;-88
2023/08/17 02:21:51;;;;;;;22.27;19.03;;;17.70;99.90;;;;;;5113864;28;20231;-88
2023/08/17 02:24:16;;;;;;;23.43;19.50;;;17.80;99.90;;;;;;5114905;28;20211;-88
2023/08/17 02:26:42;;;;;;;21.23;17.90;;;17.90;99.90;;;;;;5117509;28;20448;-88
2023/08/17 02:29:08;;;;;;;20.33;18.33;;;17.90;99.90;;;;;;5117261;28;20531;-89
2023/08/17 02:31:33;;;;;;;21.57;19.47;;;17.80;99.90;;;;;;5117432;28;20179;-87
2023/08/17 02:34:04;;;;;;;20.47;18.47;;;17.80;99.90;;;;;;5117236;28;20612;-88
2023/08/17 02:36:30;;;;;;;20.47;18.20;;;17.80;99.90;;;;;;5099559;28;20208;-88
2023/08/17 02:38:56;;;;;;;20.80;18.77;;;17.80;99.90;;;;;;5117578;28;20422;-88
2023/08/17 02:41:21;;;;;;;20.80;18.87;;;17.80;99.90;;;;;;5098659;28;20255;-88
2023/08/17 02:43:47;;;;;;;22.80;20.17;;;17.80;99.90;;;;;;5117265;28;20175;-88
2023/08/17 02:46:12;;;;;;;22.60;20.30;;;17.90;99.90;;;;;;5117239;28;20635;-88
2023/08/17 02:48:38;;;;;;;21.00;19.07;;;17.80;99.90;;;;;;5116997;28;20190;-88
2023/08/17 02:51:04;;;;;;;21.30;18.90;;;17.70;99.90;;;;;;5117187;28;20179;-88
2023/08/17 02:53:29;;;;;;;19.43;17.53;;;17.80;99.90;;;;;;5116853;28;20254;-88
2023/08/17 02:55:55;;;;;;;20.63;18.67;;;17.90;99.90;;;;;;5116827;28;20198;-88
2023/08/17 02:58:20;;;;;;;20.47;18.57;;;17.90;99.90;;;;;;5116495;28;20183;-88
2023/08/17 03:00:46;;;;;;;22.87;18.70;;;17.90;99.90;;;;;;5116641;28;20184;-88
2023/08/17 03:03:12;;;;;;;20.40;18.30;;;17.90;99.90;;;;;;5116651;28;20270;-88
2023/08/17 03:05:37;;;;;;;20.80;18.80;;;18.00;99.90;;;;;;5098686;28;20187;-88
2023/08/17 03:08:03;;;;;;;21.47;18.90;;;17.90;99.90;;;;;;5116545;28;20188;-88
2023/08/17 03:10:29;;;;;;;20.97;18.77;;;18.00;99.90;;;;;;5116742;28;20201;-88
2023/08/17 03:12:55;;;;;;;21.60;18.30;;;18.00;99.90;;;;;;5116560;28;20413;-88
2023/08/17 03:15:20;;;;;;;20.10;17.90;;;18.00;99.90;;;;;;5116425;28;20414;-88
2023/08/17 03:17:46;;;;;;;23.57;20.00;;;17.90;99.90;;;;;;5116420;28;20203;-88
2023/08/17 03:20:12;;;;;;;22.33;20.13;;;18.00;99.90;;;;;;5116298;28;20187;-88
2023/08/17 03:22:37;;;;;;;22.77;20.57;;;17.90;99.90;;;;;;5097525;28;20285;-88
2023/08/17 03:25:03;;;;;;;28.00;20.50;;;17.90;99.90;;;;;;5116357;28;20183;-88
2023/08/17 03:27:29;;;;;;;23.33;20.97;;;18.00;99.90;;;;;;5097847;28;20582;-88
2023/08/17 03:29:54;;;;;;;22.90;20.60;;;18.00;99.90;;;;;;5116350;28;20417;-87
2023/08/17 03:32:20;;;;;;;24.40;21.90;;;18.00;99.90;;;;;;5115796;28;20180;-88
2023/08/17 03:34:46;;;;;;;26.33;22.80;;;18.00;99.90;;;;;;5115887;28;20623;-88
2023/08/17 03:37:11;;;;;;;25.50;22.90;;;18.00;99.90;;;;;;5116119;28;20221;-89
2023/08/17 03:39:37;;;;;;;26.50;22.33;;;18.00;99.90;;;;;;5115969;28;20188;-87
2023/08/17 03:42:02;;;;;;;25.47;22.20;;;18.00;99.90;;;;;;5115976;28;20180;-87
2023/08/17 03:44:28;;;;;;;23.63;21.10;;;17.90;99.90;;;;;;5097523;28;20182;-88
2023/08/17 03:46:53;;;;;;;23.53;21.17;;;18.00;99.90;;;;;;5116021;28;20584;-88
2023/08/17 03:49:19;;;;;;;24.83;22.53;;;17.90;99.90;;;;;;5115673;28;20175;-88
2023/08/17 03:51:45;;;;;;;24.77;21.67;;;17.90;99.90;;;;;;5115893;28;20561;-87
2023/08/17 03:54:12;;;;;;;24.63;21.93;;;17.80;99.90;;;;;;5115880;28;20628;-87
2023/08/17 03:56:38;;;;;;;21.87;19.73;;;17.90;99.90;;;;;;5115681;28;20225;-87
2023/08/17 03:59:04;;;;;;;25.13;19.90;;;17.90;99.90;;;;;;5115756;28;20916;-87
2023/08/17 04:01:29;;;;;;;24.47;22.00;;;17.90;99.90;;;;;;5115319;28;20244;-88
2023/08/17 04:03:55;;;;;;;23.63;20.50;;;17.90;99.90;;;;;;5115601;28;20203;-87
2023/08/17 04:06:21;;;;;;;22.23;20.13;;;17.80;99.90;;;;;;5115026;28;20189;-88
2023/08/17 04:08:46;;;;;;;22.90;20.77;;;17.90;99.90;;;;;;5115420;28;20179;-88
2023/08/17 04:11:12;;;;;;;23.10;20.70;;;17.90;99.90;;;;;;5115532;28;20258;-87
2023/08/17 04:13:37;;;;;;;22.23;20.13;;;17.90;99.90;;;;;;5115367;28;20583;-87
2023/08/17 04:16:03;;;;;;;22.80;20.40;;;17.90;99.90;;;;;;5114972;28;20218;-87
2023/08/17 04:18:29;;;;;;;22.63;20.30;;;17.80;99.90;;;;;;5115277;28;20194;-88
2023/08/17 04:20:54;;;;;;;22.77;20.23;;;17.80;99.90;;;;;;5115366;28;20179;-88
2023/08/17 04:23:20;;;;;;;20.90;18.70;;;17.90;99.90;;;;;;5114965;28;20234;-87
2023/08/17 04:25:47;;;;;;;24.53;19.70;;;17.90;99.90;;;;;;5115438;28;20588;-88
2023/08/17 04:28:13;;;;;;;24.67;21.03;;;17.80;99.90;;;;;;5115158;28;20172;-87
2023/08/17 04:30:38;;;;;;;21.03;18.87;;;17.80;99.90;;;;;;5114796;28;20912;-87
2023/08/17 04:33:04;;;;;;;21.50;19.17;;;17.80;99.90;;;;;;5115068;28;20575;-87
2023/08/17 04:35:30;;;;;;;20.80;18.57;;;17.80;99.90;;;;;;5114921;28;20179;-87
2023/08/17 04:37:56;;;;;;;22.73;20.20;;;17.80;99.90;;;;;;5114684;28;20463;-87
2023/08/17 04:40:21;;;;;;;20.43;18.33;;;17.70;99.90;;;;;;5114649;28;20194;-87
2023/08/17 04:42:47;;;;;;;24.33;20.30;;;17.70;99.90;;;;;;5114899;28;20210;-87
2023/08/17 04:45:13;;;;;;;23.57;20.83;;;17.70;99.90;;;;;;5115201;28;20549;-87
2023/08/17 04:47:39;;;;;;;20.63;18.50;;;17.70;99.90;;;;;;5114071;28;20233;-87
2023/08/17 04:50:05;;;;;;;21.93;19.47;;;17.70;99.90;;;;;;5114866;28;20187;-87
2023/08/17 04:52:31;;;;;;;24.40;19.43;;;17.70;99.90;;;;;;5114364;28;20478;-87
2023/08/17 04:54:57;;;;;;;25.57;20.83;;;17.70;99.90;;;;;;5114794;28;20398;-87
2023/08/17 04:57:22;;;;;;;21.50;19.20;;;17.70;99.90;;;;;;5114409;28;20704;-87
2023/08/17 04:59:48;;;;;;;21.87;19.80;;;17.80;99.90;;;;;;5114700;28;20221;-87
2023/08/17 05:02:13;;;;;;;21.97;18.23;;;17.70;99.90;;;;;;5096312;28;20611;-87
2023/08/17 05:04:39;;;;;;;22.43;19.43;;;17.70;99.90;;;;;;5114407;28;20265;-87
2023/08/17 05:07:05;;;;;;;27.13;20.73;;;17.80;99.90;;;;;;5114717;28;20191;-86
2023/08/17 05:09:31;;;;;;;21.07;19.00;;;17.80;99.90;;;;;;5114245;28;20866;-87
2023/08/17 05:11:57;;;;;;;22.87;20.40;;;17.80;99.90;;;;;;5114294;28;20384;-87
2023/08/17 05:14:22;;;;;;;21.47;19.07;;;17.70;99.90;;;;;;5114229;28;20183;-87
2023/08/17 05:16:48;;;;;;;21.80;19.60;;;17.80;99.90;;;;;;5114494;28;20211;-86
2023/08/17 05:19:13;;;;;;;25.70;18.00;;;17.70;99.90;;;;;;5114408;28;20216;-87
2023/08/17 05:21:39;;;;;;;25.20;17.83;;;17.70;99.90;;;;;;5113819;28;20227;-86
2023/08/17 05:24:05;;;;;;;20.90;18.40;;;17.60;99.90;;;;;;5114287;28;20219;-86
2023/08/17 05:26:30;;;;;;;22.43;20.00;;;17.70;99.90;;;;;;5114070;28;20186;-87
2023/08/17 05:28:56;;;;;;;20.97;18.40;;;17.70;99.90;;;;;;5114585;28;20191;-87
2023/08/17 05:31:21;;;;;;;22.77;18.87;;;17.70;99.90;;;;;;5114283;28;20209;-87
2023/08/17 05:33:47;;;;;;;20.70;18.63;;;17.70;99.90;;;;;;5114457;28;20175;-87
2023/08/17 05:36:13;;;;;;;20.73;18.33;;;17.70;99.90;;;;;;5113905;28;20217;-87
2023/08/17 05:38:38;;;;;;;21.47;17.57;;;17.80;99.90;;;;;;5113943;28;20188;-87
2023/08/17 05:41:04;;;;;;;20.37;16.80;;;17.80;99.90;;;;;;5114254;28;20410;-87
2023/08/17 05:43:29;;;;;;;21.90;18.70;;;17.80;99.90;;;;;;5113935;28;20175;-87
2023/08/17 05:45:59;;;;;;;21.17;18.40;;;17.80;99.90;;;;;;5114180;28;20202;-87
2023/08/17 05:48:25;;;;;;;20.87;18.77;;;17.90;99.90;;;;;;5113935;28;20179;-87
2023/08/17 05:50:50;;;;;;;19.23;17.33;;;17.90;99.90;;;;;;5114181;28;20421;-87
2023/08/17 05:53:16;;;;;;;21.47;17.40;;;17.90;99.90;;;;;;5114390;28;20740;-87
2023/08/17 05:55:42;;;;;;;23.23;18.50;;;17.80;99.90;;;;;;5114046;28;20540;-87
2023/08/17 05:58:07;;;;;;;24.37;17.30;;;17.90;99.90;;;;;;5114355;28;20225;-87
2023/08/17 06:00:33;;;;;;;19.03;17.13;;;18.00;99.90;;;;;;5117264;28;20180;-87
2023/08/17 06:03:01;;;;;;;19.63;16.70;;;18.00;99.90;;;;;;5117847;28;20210;-87
2023/08/17 06:05:28;;;;;;;17.97;15.10;;;17.90;99.90;;;;;;5117716;28;20279;-88
2023/08/17 06:07:54;;;;;;;19.40;16.63;;;18.10;99.90;;;;;;5118450;28;20797;-87
2023/08/17 06:10:20;;;;;;;19.80;14.70;;;18.10;99.90;;;;;;5117687;28;20751;-87
2023/08/17 06:12:46;;;;;;;15.40;13.83;;;18.10;99.90;;;;;;5117987;28;20383;-87
2023/08/17 06:15:13;;;;;;;16.47;14.30;;;18.20;99.90;;;;;;5117752;28;20408;-87
2023/08/17 06:17:39;;;;;;;18.40;13.80;;;18.10;99.90;;;;;;5117467;28;20540;-86
2023/08/17 06:20:07;;;;;;;16.47;14.70;;;18.20;99.90;;;;;;5117623;28;20817;-87
2023/08/17 06:22:32;;;;;;;14.87;13.30;;;18.20;99.90;;;;;;5117219;28;20234;-87
2023/08/17 06:24:58;;;;;;;18.50;13.70;;;18.30;99.90;;;;;;5117620;28;20388;-87
2023/08/17 06:27:23;;;;;;;17.37;13.73;;;18.40;99.90;;;;;;5117240;28;20215;-88
2023/08/17 06:29:49;;;;;;;14.83;13.40;;;18.50;99.90;;;;;;5117429;28;20522;-87
2023/08/17 06:32:14;;;;;;;15.93;13.47;;;18.50;99.90;;;;;;5117726;28;20190;-87
2023/08/17 06:34:40;;;;;;;15.10;13.27;;;18.50;99.90;;;;;;5117508;28;20207;-87
2023/08/17 06:37:06;;;;;;;14.90;13.30;;;18.50;99.90;;;;;;5099176;28;20658;-87
2023/08/17 06:39:31;;;;;;;14.80;13.30;;;18.60;99.90;;;;;;5117206;28;20279;-87
2023/08/17 06:41:57;;;;;;;13.30;11.97;;;18.60;99.90;;;;;;5117389;28;20225;-88
2023/08/17 06:44:22;;;;;;;15.03;12.30;;;18.60;99.90;;;;;;5120973;28;20155;-88
2023/08/17 06:46:48;;;;;;;12.87;11.43;;;18.80;99.90;;;;;;5103057;28;20245;-89
2023/08/17 06:49:13;;;;;;;18.33;11.70;;;18.70;99.90;;;;;;5116175;28;20186;-89
2023/08/17 06:51:39;;;;;;;16.33;10.93;;;18.80;99.90;;;;;;5081489;28;20183;-89
2023/08/17 06:54:09;;;;;;;14.70;10.80;;;18.80;99.90;;;;;;5099072;28;20186;-91
2023/08/17 06:56:34;;;;;;;11.53;10.37;;;18.90;99.90;;;;;;5116646;28;20238;-91
2023/08/17 06:59:00;;;;;;;11.90;10.20;;;19.10;99.90;;;;;;5117021;28;20453;-91
2023/08/17 07:01:26;;;;;;;14.40;10.70;;;19.00;99.90;;;;;;5116355;28;20484;-90
2023/08/17 07:03:52;;;;;;;22.57;13.93;;;19.00;99.90;;;;;;5116934;28;20198;-92
2023/08/17 07:06:17;;;;;;;12.00;10.67;;;19.10;99.90;;;;;;5098426;28;20195;-91
2023/08/17 07:08:43;;;;;;;11.83;9.67;;;19.20;99.90;;;;;;5116983;28;20182;-91
2023/08/17 07:11:09;;;;;;;12.27;10.50;;;19.30;99.90;;;;;;5116385;28;20183;-91
2023/08/17 07:13:35;;;;;;;12.47;11.13;;;19.30;99.90;;;;;;5097582;28;20646;-91
2023/08/17 07:16:00;;;;;;;13.00;11.23;;;19.40;99.90;;;;;;5116672;28;20384;-91
2023/08/17 07:18:26;;;;;;;14.17;12.70;;;19.30;99.90;;;;;;5116386;28;20672;-91
2023/08/17 07:20:51;;;;;;;14.70;11.23;;;19.20;99.90;;;;;;5116587;28;20191;-91
2023/08/17 07:23:17;;;;;;;20.00;11.33;;;19.30;99.90;;;;;;5098039;28;20218;-91
2023/08/17 07:25:43;;;;;;;13.30;11.17;;;19.30;99.90;;;;;;5097824;28;20183;-91
2023/08/17 07:28:09;;;;;;;11.80;10.70;;;19.50;99.90;;;;;;5116370;28;20661;-91
2023/08/17 07:30:35;;;;;;;12.77;11.27;;;19.40;99.90;;;;;;5098820;28;20396;-92
2023/08/17 07:33:01;;;;;;;14.00;11.00;;;19.50;99.90;;;;;;5098347;28;20210;-92
2023/08/17 07:35:27;;;;;;;12.47;11.10;;;19.70;99.90;;;;;;5115998;28;20183;-92
2023/08/17 07:37:52;;;;;;;13.50;11.43;;;19.70;99.90;;;;;;5116386;28;20204;-91
2023/08/17 07:40:18;;;;;;;11.90;10.60;;;19.70;99.90;;;;;;5098500;28;20533;-92
2023/08/17 07:42:45;;;;;;;11.20;10.03;;;19.60;99.90;;;;;;5098107;28;20179;-92
2023/08/17 07:45:11;;;;;;;18.50;10.33;;;19.70;99.90;;;;;;5116446;28;20208;-92
2023/08/17 07:47:36;;;;;;;11.80;10.23;;;19.90;99.90;;;;;;5116111;28;20384;-92
2023/08/17 07:50:04;;;;;;;11.87;10.80;;;19.80;99.90;;;;;;5098150;28;20481;-92
2023/08/17 07:52:29;;;;;;;10.97;9.90;;;19.80;99.90;;;;;;5115849;28;20210;-92
2023/08/17 07:54:55;;;;;;;13.37;12.03;;;19.80;99.90;;;;;;5116228;28;20376;-92
2023/08/17 07:57:21;;;;;;;15.00;12.63;;;19.80;99.90;;;;;;5081105;28;20213;-92
2023/08/17 07:59:46;;;;;;;15.83;14.23;;;19.80;99.90;;;;;;5098016;28;20233;-92
2023/08/17 08:02:12;;;;;;;17.83;15.97;;;19.70;99.90;;;;;;5080857;28;20180;-92
2023/08/17 08:04:37;;;;;;;19.60;13.87;;;19.60;99.90;;;;;;5097894;28;20677;-92
2023/08/17 08:07:03;;;;;;;16.90;15.10;;;19.70;99.90;;;;;;5097813;28;20275;-92
2023/08/17 08:09:29;;;;;;;15.10;13.80;;;19.60;99.90;;;;;;5116344;28;20175;-92
2023/08/17 08:11:54;;;;;;;18.20;15.00;;;19.70;99.90;;;;;;5097749;28;20183;-93
2023/08/17 08:14:20;;;;;;;16.73;14.93;;;19.70;99.90;;;;;;5099815;28;20175;-92
2023/08/17 08:16:47;;;;;;;16.40;14.80;;;19.80;99.90;;;;;;5118306;28;20200;-93
2023/08/17 08:19:13;;;;;;;16.20;14.67;;;19.80;99.90;;;;;;5118775;28;20255;-93
2023/08/17 08:21:38;;;;;;;15.10;13.60;;;19.80;99.90;;;;;;5116985;28;20496;-93
2023/08/17 08:24:04;;;;;;;17.10;15.40;;;19.90;99.90;;;;;;5117890;28;20398;-93
2023/08/17 08:26:30;;;;;;;15.17;13.83;;;19.70;99.90;;;;;;5100371;28;20266;-93
2023/08/17 08:28:55;;;;;;;22.73;14.50;;;19.80;99.90;;;;;;5100752;28;20445;-94
2023/08/17 08:31:24;;;;;;;13.87;12.43;;;19.80;99.90;;;;;;5100391;28;20186;-94
2023/08/17 08:33:50;;;;;;;14.90;13.50;;;19.90;99.90;;;;;;5100159;28;20190;-94
2023/08/17 08:36:15;;;;;;;14.10;12.80;;;20.10;99.90;;;;;;5117475;28;20420;-94
2023/08/17 08:38:41;;;;;;;15.53;13.07;;;20.30;99.90;;;;;;5101629;28;20388;-94
2023/08/17 08:41:09;;;;;;;15.73;14.17;;;20.50;99.90;;;;;;5101701;28;20276;-94
2023/08/17 08:43:35;;;;;;;18.10;14.00;;;20.40;99.90;;;;;;5118106;28;20167;-93
2023/08/17 08:46:01;;;;;;;18.17;14.23;;;20.40;99.90;;;;;;5120666;28;20401;-94
2023/08/17 08:48:29;;;;;;;15.17;13.70;;;20.50;99.90;;;;;;5121680;28;20763;-94
2023/08/17 08:50:55;;;;;;;15.13;13.67;;;20.70;99.90;;;;;;5103042;28;20404;-94
2023/08/17 08:53:32;;;;;;;18.13;15.87;;;20.60;99.90;;;;;;5104439;28;20394;-95
2023/08/17 08:55:59;;;;;;;18.17;16.00;;;20.70;99.90;;;;;;5125489;28;20421;-94
2023/08/17 08:58:29;;;;;;;18.37;16.13;;;20.90;99.90;;;;;;5106383;28;20425;-94
2023/08/17 09:00:58;;;;;;;20.80;14.60;;;20.60;99.90;;;;;;5122566;28;20368;-94
2023/08/17 09:03:25;;;;;;;18.07;16.17;;;20.50;99.90;;;;;;5115730;28;20479;-94
2023/08/17 09:05:52;;;;;;;21.60;16.80;;;20.50;99.90;;;;;;5097584;28;20552;-94
2023/08/17 09:08:25;;;;;;;19.70;16.53;;;20.60;99.90;;;;;;5097499;28;20895;-94
2023/08/17 09:10:50;;;;;;;21.23;17.10;;;20.70;99.90;;;;;;5115267;28;20781;-94
2023/08/17 09:13:16;;;;;;;19.87;16.17;;;20.70;99.90;;;;;;5097701;28;20413;-93
2023/08/17 09:15:42;;;;;;;19.80;17.60;;;20.80;99.90;;;;;;5115154;28;20639;-94
2023/08/17 09:18:07;;;;;;;18.73;16.63;;;20.70;99.90;;;;;;5116090;28;20199;-95
2023/08/17 09:20:47;;;;;;;18.90;15.47;;;20.70;99.90;;;;;;5098882;28;20191;-94
2023/08/17 09:23:14;;;;;;;18.60;14.70;;;20.80;99.90;;;;;;5133703;28;20234;-95
2023/08/17 09:25:41;;;;;;;19.87;17.10;;;20.90;99.90;;;;;;5097584;28;20417;-95
2023/08/17 09:28:12;;;;;;;21.03;15.40;;;21.10;99.90;;;;;;5098740;28;20421;-95
2023/08/17 09:31:03;;;;;;;18.77;16.67;;;21.30;99.90;;;;;;5116030;28;20375;-95
2023/08/17 09:33:32;;;;;;;19.70;16.90;;;21.10;99.90;;;;;;5117996;28;20445;-95
2023/08/17 09:35:59;;;;;;;23.80;21.27;;;21.00;99.90;;;;;;5120039;28;20409;-95
2023/08/17 09:38:27;;;;;;;25.43;21.97;;;21.10;99.90;;;;;;5103471;28;20906;-94
2023/08/17 09:40:53;;;;;;;23.37;19.60;;;21.10;99.90;;;;;;5120457;28;20420;-96
2023/08/17 09:43:20;;;;;;;22.97;20.67;;;21.10;99.90;;;;;;5102345;28;20396;-94
2023/08/17 09:45:49;;;;;;;24.77;22.10;;;21.10;99.90;;;;;;5102727;28;20425;-95
2023/08/17 09:48:17;;;;;;;27.03;23.20;;;21.20;99.90;;;;;;5120171;28;20387;-96
2023/08/17 09:50:44;;;;;;;23.13;20.60;;;21.00;99.90;;;;;;5119857;28;20508;-96
2023/08/17 09:53:14;;;;;;;24.30;21.73;;;21.20;99.90;;;;;;5120247;28;20482;-94
2023/08/17 09:55:42;;;;;;;24.07;21.37;;;21.00;99.90;;;;;;5119903;28;20404;-94
2023/08/17 09:58:14;;;;;;;23.43;20.60;;;21.10;99.90;;;;;;5119736;28;20524;-96
2023/08/17 10:00:51;;;;;;;22.40;18.77;;;21.10;99.90;;;;;;5102711;28;20395;-96
2023/08/17 10:03:19;;;;;;;23.10;20.63;;;21.30;99.90;;;;;;5123219;28;20739;-96
2023/08/17 10:05:49;;;;;;;23.30;20.87;;;21.50;99.90;;;;;;5125041;28;20915;-96
2023/08/17 10:08:19;;;;;;;24.23;21.60;;;21.60;99.90;;;;;;5125632;28;20469;-96
2023/08/17 10:10:45;;;;;;;25.73;20.90;;;21.80;99.90;;;;;;5111089;28;20432;-96
2023/08/17 10:14:05;;;;;;;23.93;19.27;;;21.80;99.90;;;;;;5109901;28;20475;-96
2023/08/17 10:16:42;;;;;;;24.53;21.93;;;22.10;99.90;;;;;;5020989;28;20471;-95
2023/08/17 10:19:25;;;;;;;22.20;19.90;;;22.00;99.90;;;;;;5136733;27;20977;-95
2023/08/17 10:22:03;;;;;;;27.47;23.27;;;22.00;99.90;;;;;;5101682;28;20554;-95
2023/08/17 10:24:30;;;;;;;29.50;23.93;;;22.10;99.90;;;;;;5120108;28;20379;-95
2023/08/17 10:26:57;;;;;;;22.80;20.37;;;21.80;99.90;;;;;;5119702;28;20451;-95
2023/08/17 10:29:23;;;;;;;27.00;21.60;;;21.60;99.90;;;;;;5085916;28;20467;-96
2023/08/17 10:31:49;;;;;;;30.10;23.07;;;21.60;99.90;;;;;;5119321;28;20425;-94
2023/08/17 10:34:16;;;;;;;26.47;22.20;;;21.70;99.90;;;;;;5136278;27;20432;-95
2023/08/17 10:36:42;;;;;;;21.60;18.33;;;21.80;99.90;;;;;;5139215;27;20203;-95
2023/08/17 10:39:27;;;;;;;26.37;20.97;;;22.00;99.90;;;;;;5103936;28;20416;-95
2023/08/17 10:41:53;;;;;;;24.40;20.33;;;22.20;99.90;;;;;;5104429;28;20817;-95
2023/08/17 10:44:41;;;;;;;28.07;22.60;;;22.30;99.90;;;;;;5101325;28;20972;-96
2023/08/17 10:47:20;;;;;;;26.20;21.43;;;22.50;99.90;;;;;;5102021;28;20413;-95
2023/08/17 10:49:47;;;;;;;25.43;20.07;;;22.30;99.90;;;;;;5101600;28;20466;-96
2023/08/17 10:52:13;;;;;;;21.80;19.47;;;22.20;99.90;;;;;;5101895;28;20425;-95
2023/08/17 10:54:40;;;;;;;20.80;18.60;;;22.50;99.90;;;;;;5102696;28;20943;-95
2023/08/17 10:57:27;;;;;;;22.40;19.30;;;22.30;99.90;;;;;;5102612;28;20203;-96
2023/08/17 11:00:26;;;;;;;23.93;18.10;;;22.30;99.90;;;;;;5101919;28;20433;-95
2023/08/17 11:02:54;;;;;;;23.43;18.83;;;22.30;99.90;;;;;;5120025;28;20788;-96
2023/08/17 11:05:49;;;;;;;24.10;18.90;;;22.20;99.90;;;;;;5124264;28;20429;-95
2023/08/17 11:08:31;;;;;;;22.17;17.57;;;22.20;99.90;;;;;;5101439;28;20523;-95
2023/08/17 11:11:06;;;;;;;22.43;17.80;;;22.30;99.90;;;;;;5103267;28;20429;-96
2023/08/17 11:13:34;;;;;;;22.17;17.07;;;22.50;99.90;;;;;;5120701;28;20375;-95
2023/08/17 11:16:00;;;;;;;19.83;16.70;;;22.50;99.90;;;;;;5103601;28;20421;-95
2023/08/17 11:18:26;;;;;;;19.30;16.23;;;22.50;99.90;;;;;;5103602;28;20476;-95
2023/08/17 11:20:53;;;;;;;22.43;17.40;;;22.40;99.90;;;;;;5122808;28;20414;-96
2023/08/17 11:23:19;;;;;;;19.73;16.53;;;22.50;99.90;;;;;;5104993;28;20457;-96
2023/08/17 11:25:46;;;;;;;20.30;17.53;;;22.50;99.90;;;;;;5120647;28;20416;-96
2023/08/17 11:28:14;;;;;;;21.30;17.70;;;22.50;99.90;;;;;;5122120;28;20433;-95
2023/08/17 11:30:41;;;;;;;23.63;17.27;;;22.40;99.90;;;;;;5105774;28;20427;-95
2023/08/17 11:33:10;;;;;;;23.77;17.43;;;22.50;99.90;;;;;;5125555;28;20409;-95
2023/08/17 11:35:36;;;;;;;25.70;17.03;;;22.50;99.90;;;;;;5120414;28;20372;-95
2023/08/17 11:38:03;;;;;;;20.10;16.47;;;22.30;99.90;;;;;;5119692;28;20491;-96
2023/08/17 11:40:29;;;;;;;21.80;16.53;;;22.00;99.90;;;;;;5101643;28;20921;-96
2023/08/17 11:42:55;;;;;;;21.77;18.03;;;22.00;99.90;;;;;;5086492;28;20445;-95
2023/08/17 11:45:21;;;;;;;20.67;16.87;;;22.10;99.90;;;;;;5122350;28;20842;-95
2023/08/17 11:47:48;;;;;;;21.60;19.30;;;22.10;99.90;;;;;;5103671;28;20421;-95
2023/08/17 11:50:14;;;;;;;22.17;19.63;;;22.10;99.90;;;;;;5120534;28;20463;-96
2023/08/17 11:52:40;;;;;;;20.03;17.50;;;22.10;99.90;;;;;;5101991;28;20417;-96
2023/08/17 11:55:10;;;;;;;24.03;17.70;;;22.00;99.90;;;;;;5103918;28;20384;-95
2023/08/17 11:57:37;;;;;;;23.77;18.63;;;21.80;99.90;;;;;;5102724;28;20459;-96
2023/08/17 12:00:25;;;;;;;21.83;17.10;;;22.10;99.90;;;;;;5102089;28;20941;-96
2023/08/17 12:02:52;;;;;;;19.90;17.40;;;22.00;99.90;;;;;;5102707;28;20453;-96
2023/08/17 12:05:26;;;;;;;23.40;18.00;;;21.90;99.90;;;;;;5105298;28;20383;-95
2023/08/17 12:07:55;;;;;;;17.73;15.93;;;22.00;99.90;;;;;;5122687;28;20405;-96
2023/08/17 12:10:24;;;;;;;20.60;18.50;;;22.10;99.90;;;;;;5102542;28;20425;-96
2023/08/17 12:12:50;;;;;;;21.93;15.60;;;21.90;99.90;;;;;;5111037;28;20497;-96
2023/08/17 12:15:17;;;;;;;21.07;16.27;;;21.90;99.90;;;;;;5143251;27;20782;-96
2023/08/17 12:17:47;;;;;;;28.27;18.30;;;21.90;99.90;;;;;;5127252;28;20452;-93
2023/08/17 12:20:20;;;;;;;22.83;16.80;;;21.90;99.90;;;;;;5109310;28;20406;-96
2023/08/17 12:22:47;;;;;;;22.40;17.07;;;22.00;99.90;;;;;;5107257;28;20455;-96
2023/08/17 12:25:13;;;;;;;20.93;18.60;;;21.80;99.90;;;;;;5106532;28;20461;-96
2023/08/17 12:27:39;;;;;;;21.50;17.20;;;21.80;99.90;;;;;;5105951;28;20452;-96
2023/08/17 12:30:13;;;;;;;25.10;18.20;;;22.00;99.90;;;;;;5125813;28;20380;-96